Flight Track Log - Related Links

Times and Time Zones

All times are in EDT time to prevent confusion due to time zone crossing. See the UAL495 flight status page for this flight to view local times or setup timezone preferences in your user account.

Time Position Orientation Groundspeed Altitude Reporting Facility
EDT Latitude Longitude Course Direction KTS MPH feet Rate Location/Type
Mon 08:51:17 AM 33.9347 -118.4436 90° East 193 222 1,700  Level Los Angeles Center
Mon 08:52:17 AM 33.8917 -118.4919 223° Southwest 227 261 4,500 2,777 Climbing Los Angeles Center
Mon 08:53:00 AM 33.7637 -118.6183 132° Southeast  Level FlightAware Approximate
Mon 08:53:18 AM 33.8158 -118.5053 188° South 271 312 7,300  Level Los Angeles Center
Mon 08:54:00 AM 33.6816 -118.5063 101° East  Level FlightAware Approximate
Mon 08:54:18 AM 33.7369 -118.5161 187° South 291 335 10,200  Level Los Angeles Center
Mon 08:55:00 AM 33.6453 -118.3631 116° Southeast  Level FlightAware Approximate
Mon 08:55:19 AM 33.6667 -118.4625 148° Southeast 339 390 12,300  Level Los Angeles Center
Mon 08:56:00 AM 33.6333 -118.2157 90° East  Level FlightAware Approximate
Mon 08:56:19 AM 33.6492 -118.3492 100° East 353 406 14,800  Level Los Angeles Center
Mon 08:57:19 AM 33.6431 -118.2269 93° East 375 432 16,900 2,033 Climbing Los Angeles Center
Mon 08:58:20 AM 33.7003 -118.1231 56° Northeast 401 461 18,900 2,281 Climbing Los Angeles Center
Mon 08:59:20 AM 33.8111 -118.0314 34° Northeast 409 471 21,500 2,380 Climbing Los Angeles Center
Mon 09:00:21 AM 33.9039 -117.9464 37° Northeast 420 483 23,700 1,934 Climbing Los Angeles Center
Mon 09:01:21 AM 33.9997 -117.8589 37° Northeast 430 495 25,400 1,736 Climbing Los Angeles Center
Mon 09:02:22 AM 34.0972 -117.7678 38° Northeast 440 506 27,200 1,537 Climbing Los Angeles Center
Mon 09:03:22 AM 34.1825 -117.6522 48° Northeast 462 532 28,500 1,339 Climbing Los Angeles Center
Mon 09:04:23 AM 34.2736 -117.5378 46° Northeast 469 540 29,900 1,587 Climbing Los Angeles Center
Mon 09:05:23 AM 34.3656 -117.4206 46° Northeast 476 548 31,700 1,785 Climbing Los Angeles Center
Mon 09:06:24 AM 34.4586 -117.2994 47° Northeast 473 544 33,500 1,736 Climbing Los Angeles Center
Mon 09:07:24 AM 34.5469 -117.1853 47° Northeast 469 540 35,200 1,488 Climbing Los Angeles Center
Mon 09:08:25 AM 34.6347 -117.0728 47° Northeast 465 535 36,500 885 Climbing Los Angeles Center
Mon 09:09:26 AM 34.7211 -116.9606 47° Northeast 458 527 37,000 248 Climbing Los Angeles Center
Mon 09:10:26 AM 34.8072 -116.8486 47° Northeast 457 526 37,000  Level Los Angeles Center
Mon 09:11:27 AM 34.8939 -116.7350 47° Northeast 460 529 37,000  Level Los Angeles Center
Mon 09:12:27 AM 34.9831 -116.6200 47° Northeast 467 537 37,000  Level Los Angeles Center
Mon 09:13:28 AM 35.0714 -116.5025 47° Northeast 471 542 37,000  Level Los Angeles Center
Mon 09:14:29 AM 35.1603 -116.3864 47° Northeast 470 541 37,000  Level Los Angeles Center
Mon 09:15:30 AM 35.2489 -116.2700 47° Northeast 469 540 37,000  Level Los Angeles Center
Mon 09:16:30 AM 35.3358 -116.1550 47° Northeast 464 534 37,000  Level Los Angeles Center
Mon 09:17:31 AM 35.4222 -116.0397 47° Northeast 462 532 37,000  Level Los Angeles Center
Mon 09:18:32 AM 35.5108 -115.9253 46° Northeast 463 533 37,000  Level Los Angeles Center
Mon 09:19:33 AM 35.6069 -115.7964 47° Northeast 462 532 37,000  Level Los Angeles Center
Mon 09:20:33 AM 35.6914 -115.6817 48° Northeast 456 525 37,000  Level Los Angeles Center
Mon 09:21:34 AM 35.7786 -115.5672 47° Northeast 458 527 37,000  Level Los Angeles Center
Mon 09:22:35 AM 35.8642 -115.4514 48° Northeast 459 528 37,000  Level Los Angeles Center
Mon 09:23:36 AM 35.9658 -115.3131 48° Northeast 458 527 37,000  Level Los Angeles Center
Mon 09:24:37 AM 36.0497 -115.1978 48° Northeast 453 521 37,000  Level Los Angeles Center
Mon 09:25:38 AM 36.1114 -115.0594 61° Northeast 466 536 37,000  Level Los Angeles Center
Mon 09:26:39 AM 36.1558 -114.9094 70° East 468 539 37,000  Level Los Angeles Center
Mon 09:27:40 AM 36.2008 -114.7592 70° East 469 540 37,000  Level Los Angeles Center
Mon 09:28:41 AM 36.2478 -114.6086 69° East 471 542 37,000  Level Los Angeles Center
Mon 09:29:42 AM 36.2933 -114.4597 69° East 466 536 37,000  Level Los Angeles Center
Mon 09:30:43 AM 36.3389 -114.3094 69° East 466 536 37,000  Level Los Angeles Center
Mon 09:31:44 AM 36.3844 -114.1586 69° East 466 536 37,000  Level Los Angeles Center
Mon 09:32:45 AM 36.4375 -114.0119 66° East 467 537 37,000  Level Los Angeles Center
Mon 09:33:46 AM 36.4892 -113.8644 66° East 466 536 37,000  Level Los Angeles Center
Mon 09:34:47 AM 36.5400 -113.7128 67° East 464 534 37,000  Level Los Angeles Center
Mon 09:35:48 AM 36.5914 -113.5628 67° East 471 542 37,000  Level Los Angeles Center
Mon 09:36:50 AM 36.6514 -113.3850 67° East 468 539 37,000  Level Los Angeles Center
Mon 09:37:51 AM 36.7025 -113.2367 67° East 468 539 37,000  Level Los Angeles Center
Mon 09:38:52 AM 36.7531 -113.0872 67° East 471 542 37,000  Level Los Angeles Center
Mon 09:39:53 AM 36.8042 -112.9386 67° East 470 541 37,000  Level Los Angeles Center
Mon 09:40:54 AM 36.8550 -112.7892 67° East 470 541 37,000  Level Los Angeles Center
Mon 09:41:56 AM 36.9056 -112.6386 67° East 472 543 37,000  Level Los Angeles Center
Mon 09:42:57 AM 36.9553 -112.4881 68° East 472 543 37,000  Level Los Angeles Center
Mon 09:43:58 AM 37.0056 -112.3383 67° East 471 542 37,000  Level Los Angeles Center
Mon 09:45:00 AM 37.0644 -112.1564 68° East 474 545 37,000  Level Los Angeles Center
Mon 09:45:37 AM 37.0967 -112.0664 66° East 473 544 37,000  Level Denver Center
Mon 09:46:38 AM 37.1472 -111.9133 67° East 477 549 37,000  Level Denver Center
Mon 09:47:03 AM 37.1653 -111.8544 69° East 474 545 37,000  Level Los Angeles Center
Mon 09:47:39 AM 37.1969 -111.7617 67° East 476 548 37,000  Level Denver Center
Mon 09:48:40 AM 37.2425 -111.6106 69° East 467 537 37,000  Level Denver Center
Mon 09:49:41 AM 37.2933 -111.4578 67° East 475 547 37,000  Level Denver Center
Mon 09:50:42 AM 37.3417 -111.3036 68° East 475 547 37,000  Level Denver Center
Mon 09:51:43 AM 37.3917 -111.1497 68° East 478 550 37,000  Level Denver Center
Mon 09:52:44 AM 37.4397 -110.9961 68° East 475 547 37,000  Level Denver Center
Mon 09:53:45 AM 37.4886 -110.8417 68° East 477 549 37,000  Level Denver Center
Mon 09:54:46 AM 37.5475 -110.6542 68° East 481 554 37,000  Level Denver Center
Mon 09:55:47 AM 37.5914 -110.5117 69° East 478 550 37,000  Level Denver Center
Mon 09:56:48 AM 37.6456 -110.3383 68° East 473 544 37,000  Level Denver Center
Mon 09:57:49 AM 37.6917 -110.1903 68° East 474 545 37,000  Level Denver Center
Mon 09:58:50 AM 37.7367 -110.0411 69° East 475 547 37,000  Level Denver Center
Mon 09:59:51 AM 37.7906 -109.8675 69° East 475 547 37,000  Level Denver Center
Mon 10:00:52 AM 37.8358 -109.7164 69° East 478 550 37,000  Level Denver Center
Mon 10:01:53 AM 37.8811 -109.5644 69° East 480 552 37,000  Level Denver Center
Mon 10:02:54 AM 37.9339 -109.3881 69° East 480 552 37,000  Level Denver Center
Mon 10:03:55 AM 37.9786 -109.2378 69° East 477 549 37,000  Level Denver Center
Mon 10:04:57 AM 38.0236 -109.0850 69° East 481 554 37,000  Level Denver Center
Mon 10:05:58 AM 38.0722 -108.9211 69° East 479 551 37,000  Level Denver Center
Mon 10:06:59 AM 38.1225 -108.7439 70° East 478 550 37,000  Level Denver Center
Mon 10:08:00 AM 38.1669 -108.5942 69° East 475 547 37,000  Level Denver Center
Mon 10:09:02 AM 38.2178 -108.4167 70° East 477 549 37,000  Level Denver Center
Mon 10:10:03 AM 38.2619 -108.2619 70° East 483 556 37,000  Level Denver Center
Mon 10:11:04 AM 38.3064 -108.1083 70° East 485 558 37,000  Level Denver Center
Mon 10:12:06 AM 38.3581 -107.9267 70° East 489 563 37,000  Level Denver Center
Mon 10:13:07 AM 38.4200 -107.7847 61° Northeast 477 549 37,000  Level Denver Center
Mon 10:14:08 AM 38.4922 -107.6172 61° Northeast 483 556 37,000  Level Denver Center
Mon 10:15:10 AM 38.5550 -107.4717 61° Northeast 488 562 37,000  Level Denver Center
Mon 10:16:11 AM 38.6181 -107.3294 60° Northeast 483 556 37,000 -98 Level Denver Center
Mon 10:17:13 AM 38.6900 -107.1597 61° Northeast 487 560 36,800 -585 Descending Denver Center
Mon 10:18:14 AM 38.7558 -107.0053 61° Northeast 493 567 35,800 -1,024 Descending Denver Center
Mon 10:19:16 AM 38.8192 -106.8553 62° Northeast 483 556 34,700 -1,415 Descending Denver Center
Mon 10:20:17 AM 38.8847 -106.7031 61° Northeast 474 545 32,900 -1,659 Descending Denver Center
Mon 10:21:19 AM 38.9422 -106.5667 62° Northeast 458 527 31,300 -1,659 Descending Denver Center
Mon 10:22:20 AM 39.0092 -106.4108 61° Northeast 448 516 29,500 -1,610 Descending Denver Center
Mon 10:23:22 AM 39.0628 -106.2814 62° Northeast 434 499 28,000 -1,561 Descending Denver Center
Mon 10:24:23 AM 39.1264 -106.1303 61° Northeast 432 497 26,300 -1,610 Descending Denver Center
Mon 10:25:25 AM 39.1825 -105.9939 62° Northeast 429 494 24,700 -1,597 Descending Denver Center
Mon 10:26:27 AM 39.2386 -105.8597 62° Northeast 421 484 23,000 -1,610 Descending Denver Center
Mon 10:27:28 AM 39.2925 -105.7281 62° Northeast 413 475 21,400 -1,561 Descending Denver Center
Mon 10:28:30 AM 39.3450 -105.6000 62° Northeast 404 465 19,800 -1,694 Descending Denver Center
Mon 10:29:32 AM 39.3967 -105.4636 64° Northeast 394 453 17,900 -1,659 Descending Denver Center
Mon 10:30:33 AM 39.4019 -105.3261 87° East 377 434 16,400 -1,512 Descending Denver Center
Mon 10:31:35 AM 39.4072 -105.1922 87° East 350 403 14,800 -1,403 Descending Denver Center
Mon 10:32:37 AM 39.4125 -105.0714 87° East 338 389 13,500 -871 Descending Denver Center
Mon 10:33:39 AM 39.4186 -104.9506 86° East 314 361 13,000 -629 Descending Denver Center
Mon 10:34:41 AM 39.4308 -104.8561 80° East 268 308 12,200 -1,113 Descending Denver Center
Mon 10:35:43 AM 39.4864 -104.8022 37° Northeast 247 284 10,700 -1,415 Descending Denver Center
Mon 10:36:44 AM 39.5492 -104.7494 33° Northeast 250 288 9,300 -1,024 Descending Denver Center
Mon 10:37:46 AM 39.6017 -104.6986 37° Northeast 239 275 8,600 -484 Descending Denver Center
Mon 10:38:48 AM 39.6600 -104.6625 25° Northeast 214 246 8,300 -484 Descending Denver Center
Mon 10:39:50 AM 39.7164 -104.6619 360° North 193 222 7,600 -823 Descending Denver Center
Mon 10:40:52 AM 39.7717 -104.6614 360° North 182 209 6,600 -968 Descending Denver Center

Login

Don't have an account? Register now (free) for customized features, flight alerts, and more!